Time;durP1;ratioP1;P1;durP2;ratioP2;P2;SDS_P1;SDS_P2;PMS_P1;PMS_P2;Temp;Humidity;BMP_temperature;BMP_pressure;BME280_temperature;BME280_humidity;BME280_pressure;Samples;Min_cycle;Max_cycle;Signal;HPM_P1;HPM_P2
2022/08/24 00:01:18;;;;;;;3.53;1.40;;;12.50;50.10;;;;;;5033181;28;20185;-79
2022/08/24 00:03:47;;;;;;;4.33;1.30;;;12.50;50.40;;;;;;5023538;28;20187;-75
2022/08/24 00:06:18;;;;;;;1.90;1.30;;;12.60;50.10;;;;;;5028525;28;20260;-81
2022/08/24 00:08:48;;;;;;;3.97;1.60;;;12.70;49.70;;;;;;5031559;28;20183;-75
2022/08/24 00:11:16;;;;;;;2.83;1.43;;;12.70;50.30;;;;;;5030576;28;20191;-75
2022/08/24 00:13:43;;;;;;;2.10;1.40;;;12.90;50.10;;;;;;5032056;28;20235;-73
2022/08/24 00:16:12;;;;;;;4.27;1.40;;;12.70;49.20;;;;;;5032542;28;20645;-78
2022/08/24 00:18:39;;;;;;;3.70;1.30;;;12.80;49.00;;;;;;5030180;28;20181;-77
2022/08/24 00:21:07;;;;;;;3.17;1.37;;;12.90;49.30;;;;;;5033145;28;20388;-74
2022/08/24 00:23:35;;;;;;;3.83;1.53;;;13.20;48.90;;;;;;5041906;28;20311;-78
2022/08/24 00:26:06;;;;;;;2.40;1.30;;;13.20;49.00;;;;;;5034804;28;20760;-80
2022/08/24 00:28:34;;;;;;;3.47;1.33;;;13.20;48.90;;;;;;5037725;28;20184;-75
2022/08/24 00:31:01;;;;;;;3.73;1.50;;;13.40;48.50;;;;;;5034444;28;20566;-73
2022/08/24 00:33:30;;;;;;;4.73;1.77;;;13.60;48.50;;;;;;5026538;28;20229;-77
2022/08/24 00:35:58;;;;;;;6.50;1.70;;;13.50;47.80;;;;;;5029597;28;20200;-79
2022/08/24 00:38:25;;;;;;;4.90;1.47;;;13.40;48.80;;;;;;5030514;28;20257;-75
2022/08/24 00:40:56;;;;;;;3.27;1.60;;;13.50;48.90;;;;;;5032131;28;20223;-73
2022/08/24 00:43:25;;;;;;;3.87;1.13;;;13.70;49.20;;;;;;5018592;28;20219;-73
2022/08/24 00:46:10;;;;;;;4.27;1.57;;;13.90;48.20;;;;;;5032620;28;20187;-76
2022/08/24 00:48:42;;;;;;;5.67;1.70;;;14.00;47.50;;;;;;5025040;28;20543;-73
2022/08/24 00:51:17;;;;;;;3.17;1.47;;;14.20;47.50;;;;;;5024948;28;20183;-75
2022/08/24 00:53:51;;;;;;;3.50;1.17;;;14.30;46.40;;;;;;5026283;28;20195;-73
2022/08/24 00:56:24;;;;;;;2.80;1.50;;;14.20;47.40;;;;;;5026846;28;20203;-72
2022/08/24 00:58:59;;;;;;;4.43;1.40;;;14.30;47.50;;;;;;5031540;28;20247;-76
2022/08/24 01:01:27;;;;;;;4.07;1.80;;;14.10;46.80;;;;;;5028071;28;20168;-76
2022/08/24 01:03:58;;;;;;;4.93;1.53;;;14.30;47.20;;;;;;5028317;28;20216;-75
2022/08/24 01:06:26;;;;;;;3.47;1.70;;;14.50;46.80;;;;;;5025198;28;20184;-76
2022/08/24 01:08:54;;;;;;;4.90;1.23;;;14.70;46.90;;;;;;5026565;28;20542;-75
2022/08/24 01:11:26;;;;;;;3.83;1.57;;;14.60;46.10;;;;;;5031427;28;20200;-76
2022/08/24 01:13:57;;;;;;;4.13;1.33;;;14.90;46.50;;;;;;5032546;28;20180;-79
2022/08/24 01:19:53;;;;;;;3.03;1.20;;;15.00;45.90;;;;;;5053151;28;20199;-76
2022/08/24 01:22:42;;;;;;;2.70;1.30;;;15.00;46.00;;;;;;5042711;28;20208;-81
2022/08/24 01:25:12;;;;;;;2.30;1.20;;;15.30;45.50;;;;;;5031362;28;20539;-77
2022/08/24 01:27:42;;;;;;;6.83;1.43;;;15.20;45.20;;;;;;5036971;28;20196;-74
2022/08/24 01:30:17;;;;;;;3.70;1.53;;;15.40;45.50;;;;;;5035257;28;20188;-75
2022/08/24 01:32:56;;;;;;;3.43;1.27;;;15.60;45.30;;;;;;5049674;28;20263;-75
2022/08/24 01:35:24;;;;;;;3.60;1.23;;;15.80;44.80;;;;;;5038727;28;20195;-74
2022/08/24 01:37:53;;;;;;;2.73;1.20;;;15.80;43.80;;;;;;5045913;28;20205;-79
2022/08/24 01:40:21;;;;;;;2.93;1.57;;;15.70;45.10;;;;;;5044523;28;20636;-74
2022/08/24 01:42:52;;;;;;;3.43;1.20;;;15.50;45.90;;;;;;5043237;28;20212;-79
2022/08/24 01:45:20;;;;;;;3.70;1.30;;;15.50;43.90;;;;;;5048050;28;20203;-72
2022/08/24 01:47:50;;;;;;;3.63;1.30;;;15.50;44.80;;;;;;5044851;28;20520;-80
2022/08/24 01:50:19;;;;;;;3.77;1.20;;;16.10;44.20;;;;;;5044178;28;20186;-74
2022/08/24 01:53:08;;;;;;;4.73;1.60;;;16.30;43.20;;;;;;5039172;28;20168;-78
2022/08/24 01:55:39;;;;;;;1.67;1.07;;;16.60;43.30;;;;;;5028454;28;20179;-81
2022/08/24 01:58:07;;;;;;;3.40;1.10;;;16.90;41.20;;;;;;5030219;28;20767;-72
2022/08/24 02:01:24;;;;;;;4.10;1.43;;;16.80;42.20;;;;;;5022445;28;20198;-80
2022/08/24 02:03:55;;;;;;;3.40;1.50;;;16.40;43.20;;;;;;5022874;28;20290;-83
2022/08/24 02:06:22;;;;;;;5.43;1.70;;;15.80;43.30;;;;;;5030212;28;20270;-73
2022/08/24 02:09:06;;;;;;;9.43;1.90;;;16.10;44.90;;;;;;5033693;28;20264;-78
2022/08/24 02:11:34;;;;;;;4.47;1.60;;;15.90;45.70;;;;;;5047520;28;20247;-75
2022/08/24 02:14:02;;;;;;;6.90;2.10;;;15.70;45.90;;;;;;5054518;28;20257;-73
2022/08/24 02:16:30;;;;;;;5.50;2.23;;;16.20;46.20;;;;;;5041566;28;20212;-74
2022/08/24 02:18:58;;;;;;;4.47;1.40;;;16.70;44.10;;;;;;5028557;28;20676;-74
2022/08/24 02:21:25;;;;;;;6.77;2.03;;;16.70;43.90;;;;;;5042778;28;20180;-73
2022/08/24 02:23:53;;;;;;;7.27;1.70;;;16.30;44.60;;;;;;5026511;28;20221;-72
2022/08/24 02:26:21;;;;;;;5.93;1.73;;;16.10;44.40;;;;;;5032140;28;20270;-75
2022/08/24 02:28:48;;;;;;;3.67;1.50;;;16.40;42.90;;;;;;5039135;28;20183;-72
2022/08/24 02:31:17;;;;;;;2.90;1.37;;;17.00;42.00;;;;;;5036157;28;20240;-73
2022/08/24 02:33:44;;;;;;;9.40;1.63;;;17.30;41.20;;;;;;5035532;28;20204;-76
2022/08/24 02:36:13;;;;;;;4.47;1.50;;;17.40;39.80;;;;;;5025030;28;20268;-73
2022/08/24 02:38:44;;;;;;;3.37;1.30;;;17.50;38.90;;;;;;5030171;28;20180;-76
2022/08/24 02:41:12;;;;;;;4.43;1.30;;;17.80;38.90;;;;;;5028212;28;20250;-74
2022/08/24 02:43:39;;;;;;;4.93;1.20;;;17.80;38.90;;;;;;5028206;28;20204;-75
2022/08/24 02:46:07;;;;;;;6.63;1.87;;;17.90;39.70;;;;;;5033624;28;20176;-75
2022/08/24 02:48:35;;;;;;;6.80;2.10;;;18.20;39.00;;;;;;5032480;28;20677;-74
2022/08/24 02:51:02;;;;;;;6.57;1.87;;;18.20;37.50;;;;;;5030057;28;20260;-77
2022/08/24 02:53:30;;;;;;;2.77;1.43;;;18.30;38.40;;;;;;5030313;28;20184;-80
2022/08/24 02:55:57;;;;;;;3.93;1.10;;;18.30;38.80;;;;;;5033658;28;20583;-76
2022/08/24 02:58:26;;;;;;;7.97;1.53;;;17.90;39.70;;;;;;5031172;28;20260;-77
2022/08/24 03:00:54;;;;;;;4.53;1.23;;;17.80;40.10;;;;;;5027377;28;20234;-77
2022/08/24 03:03:22;;;;;;;10.10;1.60;;;18.10;39.30;;;;;;5034848;28;20223;-80
2022/08/24 03:05:50;;;;;;;2.70;1.30;;;18.10;40.30;;;;;;5032493;28;20172;-74
2022/08/24 03:08:17;;;;;;;5.53;1.40;;;18.30;38.30;;;;;;5029951;28;20655;-79
2022/08/24 03:10:45;;;;;;;4.53;1.27;;;18.50;37.20;;;;;;5032829;28;20219;-78
2022/08/24 03:13:12;;;;;;;7.03;1.47;;;19.20;37.20;;;;;;5030503;28;20271;-81
2022/08/24 03:15:40;;;;;;;4.00;1.30;;;19.50;36.70;;;;;;5032679;28;20188;-79
2022/08/24 03:18:07;;;;;;;3.63;1.50;;;19.30;36.70;;;;;;5037129;28;20547;-80
2022/08/24 03:20:35;;;;;;;4.30;1.20;;;18.70;37.20;;;;;;5031409;28;20196;-80
2022/08/24 03:23:03;;;;;;;3.97;1.40;;;18.60;38.60;;;;;;5031240;28;20223;-78
2022/08/24 03:25:31;;;;;;;3.07;1.27;;;19.10;38.20;;;;;;5030128;28;20173;-76
2022/08/24 03:27:59;;;;;;;5.87;1.60;;;19.20;37.40;;;;;;5022382;28;20196;-76
2022/08/24 03:30:26;;;;;;;5.17;1.63;;;19.70;36.80;;;;;;5028109;28;20192;-77
2022/08/24 03:32:54;;;;;;;4.73;1.50;;;19.50;37.50;;;;;;5028190;28;20647;-82
2022/08/24 03:35:21;;;;;;;3.63;1.50;;;19.60;38.10;;;;;;5033747;28;20591;-84
2022/08/24 03:37:50;;;;;;;5.07;1.47;;;19.50;37.00;;;;;;5019499;28;20587;-79
2022/08/24 03:40:19;;;;;;;4.10;1.47;;;19.00;38.50;;;;;;5032588;28;20225;-81
2022/08/24 03:42:47;;;;;;;6.20;1.70;;;19.00;38.10;;;;;;5029503;28;20303;-80
2022/08/24 03:45:15;;;;;;;4.10;1.40;;;18.40;40.20;;;;;;5029027;28;20263;-78
2022/08/24 03:47:44;;;;;;;8.13;1.40;;;18.70;40.30;;;;;;5032281;28;20193;-79
2022/08/24 03:50:12;;;;;;;4.53;1.50;;;18.30;40.20;;;;;;5031635;28;20639;-78
2022/08/24 03:52:40;;;;;;;8.03;1.67;;;18.60;40.80;;;;;;5035860;28;20685;-76
2022/08/24 03:55:09;;;;;;;5.50;1.40;;;18.80;40.40;;;;;;5028083;28;20209;-76
2022/08/24 03:57:37;;;;;;;6.90;1.70;;;19.20;39.60;;;;;;5030376;28;20192;-80
2022/08/24 04:00:23;;;;;;;6.37;1.57;;;19.70;37.80;;;;;;5031318;28;20646;-81
2022/08/24 04:02:55;;;;;;;3.73;1.30;;;19.50;38.90;;;;;;5029827;28;20216;-84
2022/08/24 04:05:36;;;;;;;4.07;1.50;;;19.80;39.10;;;;;;5033901;28;20180;-79
2022/08/24 04:08:07;;;;;;;4.07;1.17;;;20.30;37.80;;;;;;5036735;28;20230;-83
2022/08/24 04:10:35;;;;;;;4.07;1.60;;;20.40;37.80;;;;;;5029315;28;20187;-81
2022/08/24 04:13:07;;;;;;;7.47;1.80;;;20.40;37.80;;;;;;5029460;28;20244;-82
2022/08/24 04:15:49;;;;;;;7.07;1.40;;;20.30;38.20;;;;;;5033874;28;20183;-81
2022/08/24 04:18:21;;;;;;;7.30;1.50;;;20.30;37.70;;;;;;5029910;28;20215;-83
2022/08/24 04:20:49;;;;;;;5.17;1.70;;;21.00;37.40;;;;;;5027829;28;20187;-86
2022/08/24 04:23:17;;;;;;;5.00;1.70;;;21.50;36.30;;;;;;5027734;28;20674;-80
2022/08/24 04:25:54;;;;;;;4.43;1.47;;;21.10;36.50;;;;;;5026784;28;20221;-86
2022/08/24 04:28:27;;;;;;;5.40;1.77;;;20.80;37.60;;;;;;5032800;28;20194;-78
2022/08/24 04:30:59;;;;;;;8.03;1.93;;;19.80;39.20;;;;;;5035367;28;20615;-81
2022/08/24 04:33:33;;;;;;;4.43;1.33;;;20.10;38.70;;;;;;5036538;28;20173;-82
2022/08/24 04:36:01;;;;;;;8.00;1.53;;;20.40;38.10;;;;;;5030725;28;20187;-75
2022/08/24 04:39:01;;;;;;;4.47;1.37;;;21.00;37.40;;;;;;5036512;28;20191;-83
2022/08/24 04:41:35;;;;;;;5.03;1.37;;;21.70;35.50;;;;;;5014876;28;20574;-84
2022/08/24 04:44:04;;;;;;;4.63;1.53;;;21.00;35.90;;;;;;5031775;28;20262;-80
2022/08/24 04:46:50;;;;;;;8.30;1.50;;;21.00;36.50;;;;;;5030398;28;20764;-79
2022/08/24 04:49:17;;;;;;;9.70;1.70;;;21.30;36.30;;;;;;5031504;28;20184;-76
2022/08/24 04:51:45;;;;;;;7.97;1.53;;;20.40;38.50;;;;;;5031726;28;20177;-74
2022/08/24 04:54:12;;;;;;;9.90;1.77;;;20.10;38.70;;;;;;5029786;28;20669;-80
2022/08/24 04:56:40;;;;;;;8.13;1.73;;;20.20;38.50;;;;;;5031343;28;20279;-77
2022/08/24 04:59:07;;;;;;;5.67;1.73;;;20.60;37.60;;;;;;5028480;28;20180;-74
2022/08/24 05:01:35;;;;;;;6.47;1.77;;;21.00;36.40;;;;;;5037284;28;20175;-73
2022/08/24 05:04:04;;;;;;;4.10;1.40;;;21.40;36.60;;;;;;5026075;28;20185;-76
2022/08/24 05:06:32;;;;;;;10.03;2.37;;;22.10;34.90;;;;;;5042291;28;20204;-75
2022/08/24 05:09:05;;;;;;;13.30;1.70;;;22.10;35.70;;;;;;5034343;28;20194;-81
2022/08/24 05:11:34;;;;;;;5.80;1.43;;;22.00;35.40;;;;;;5049249;28;20171;-79
2022/08/24 05:14:03;;;;;;;5.30;1.40;;;22.60;34.20;;;;;;5032279;28;20639;-77
2022/08/24 05:16:32;;;;;;;4.83;1.60;;;22.20;33.40;;;;;;5038825;28;20168;-79
2022/08/24 05:19:00;;;;;;;7.73;1.80;;;22.20;34.50;;;;;;5051215;28;20188;-79
2022/08/24 05:21:29;;;;;;;5.57;1.40;;;22.30;34.00;;;;;;5052282;28;20178;-79
2022/08/24 05:23:57;;;;;;;8.30;1.53;;;22.00;35.10;;;;;;5047831;28;20258;-81
2022/08/24 05:26:27;;;;;;;4.27;1.50;;;21.80;35.90;;;;;;5033363;28;20195;-84
2022/08/24 05:28:59;;;;;;;6.07;1.90;;;22.00;35.80;;;;;;5035048;28;20185;-80
2022/08/24 05:31:30;;;;;;;7.57;1.30;;;21.60;35.40;;;;;;5048279;28;20178;-84
2022/08/24 05:33:59;;;;;;;4.50;1.37;;;21.60;36.50;;;;;;5052201;28;20183;-78
2022/08/24 05:36:31;;;;;;;6.10;1.20;;;21.70;36.20;;;;;;5039177;28;20198;-85
2022/08/24 05:39:00;;;;;;;4.87;1.47;;;21.40;36.80;;;;;;5042014;28;20249;-76
2022/08/24 05:41:28;;;;;;;6.57;1.30;;;21.60;36.90;;;;;;5047225;28;20230;-75
2022/08/24 05:43:56;;;;;;;5.07;1.57;;;22.20;36.20;;;;;;5051709;28;20175;-85
2022/08/24 05:46:24;;;;;;;3.43;1.30;;;22.10;35.20;;;;;;5051958;28;20192;-84
2022/08/24 05:48:53;;;;;;;3.37;1.40;;;21.90;35.30;;;;;;5038116;28;20187;-80
2022/08/24 05:51:21;;;;;;;5.07;1.40;;;21.80;35.90;;;;;;5042645;28;20179;-81
2022/08/24 05:53:49;;;;;;;6.73;1.60;;;21.40;35.80;;;;;;5051814;28;20225;-76
2022/08/24 05:56:18;;;;;;;7.03;1.60;;;21.60;35.60;;;;;;5052331;28;20237;-76
2022/08/24 05:58:46;;;;;;;3.93;1.57;;;21.70;36.20;;;;;;5046130;28;20212;-80
2022/08/24 06:01:20;;;;;;;5.63;1.40;;;21.90;36.10;;;;;;5052323;28;20184;-78
2022/08/24 06:03:49;;;;;;;7.40;1.40;;;21.30;36.10;;;;;;5045314;28;20286;-76
2022/08/24 06:06:19;;;;;;;3.77;1.50;;;21.00;37.10;;;;;;5050599;28;20172;-80
2022/08/24 06:08:49;;;;;;;4.87;1.77;;;21.00;37.20;;;;;;5053640;28;20191;-76
2022/08/24 06:11:35;;;;;;;7.27;1.50;;;21.20;37.00;;;;;;5055005;28;20179;-77
2022/08/24 06:14:10;;;;;;;4.57;1.30;;;20.90;37.20;;;;;;5055216;28;20242;-80
2022/08/24 06:16:40;;;;;;;5.70;1.70;;;20.90;37.60;;;;;;5042787;28;20577;-78
2022/08/24 06:19:10;;;;;;;5.17;1.53;;;21.00;37.90;;;;;;5050706;28;20229;-78
2022/08/24 06:21:38;;;;;;;4.93;1.37;;;21.30;37.30;;;;;;5055171;28;20538;-77
2022/08/24 06:24:06;;;;;;;4.50;1.50;;;21.20;37.30;;;;;;5054759;28;20222;-74
2022/08/24 06:29:21;;;;;;;12.17;2.00;;;21.00;37.80;;;;;;5045181;28;20183;-80
2022/08/24 06:31:49;;;;;;;6.83;1.33;;;20.80;38.30;;;;;;5048595;28;20661;-75
2022/08/24 06:34:18;;;;;;;5.33;1.70;;;20.30;39.50;;;;;;5047609;28;20229;-77
2022/08/24 06:36:46;;;;;;;5.10;1.50;;;19.80;40.50;;;;;;5044121;28;20677;-77
2022/08/24 06:39:14;;;;;;;5.77;1.40;;;19.70;40.60;;;;;;5047126;28;20669;-79
2022/08/24 06:41:42;;;;;;;2.60;1.33;;;19.60;40.80;;;;;;5049148;28;20172;-77
2022/08/24 06:44:10;;;;;;;5.27;1.67;;;18.70;42.50;;;;;;5044110;28;20185;-79
2022/08/24 06:46:38;;;;;;;8.63;1.40;;;17.80;44.60;;;;;;5024984;28;20180;-78
2022/08/24 06:49:05;;;;;;;5.93;1.53;;;17.30;46.90;;;;;;5028792;28;20267;-77
2022/08/24 06:51:33;;;;;;;6.50;1.77;;;16.80;48.10;;;;;;5029461;28;20214;-77
2022/08/24 06:54:00;;;;;;;5.57;1.60;;;16.60;48.50;;;;;;5042584;28;20765;-75
2022/08/24 06:56:28;;;;;;;4.50;1.67;;;16.80;48.60;;;;;;5037645;28;20181;-81
2022/08/24 06:58:56;;;;;;;7.40;1.47;;;16.80;47.70;;;;;;5043740;28;20180;-79
2022/08/24 07:01:27;;;;;;;5.97;1.90;;;16.40;48.30;;;;;;5038948;28;20173;-77
2022/08/24 07:03:55;;;;;;;10.23;1.87;;;16.00;49.60;;;;;;5037634;28;20638;-76
2022/08/24 07:06:23;;;;;;;6.57;2.10;;;15.80;50.50;;;;;;5037456;28;20212;-76
2022/08/24 07:08:52;;;;;;;4.83;2.00;;;15.80;50.90;;;;;;5048369;28;20202;-77
2022/08/24 07:11:20;;;;;;;5.83;2.20;;;15.70;51.50;;;;;;5052833;28;20594;-77
2022/08/24 07:13:49;;;;;;;8.13;1.93;;;15.70;51.50;;;;;;5053445;28;20187;-76
2022/08/24 07:16:21;;;;;;;6.67;2.07;;;15.60;52.10;;;;;;5042230;28;20209;-76
2022/08/24 07:18:49;;;;;;;7.50;1.77;;;15.30;52.70;;;;;;5044393;28;20193;-76
2022/08/24 07:21:18;;;;;;;9.77;2.03;;;15.30;52.90;;;;;;5053752;28;20233;-75
2022/08/24 07:23:46;;;;;;;6.97;2.13;;;15.20;53.50;;;;;;5053891;28;20274;-76
2022/08/24 07:26:21;;;;;;;7.23;2.10;;;15.10;53.80;;;;;;5027169;28;20545;-76
2022/08/24 07:28:59;;;;;;;8.97;1.87;;;14.90;54.40;;;;;;5033844;28;20262;-76
2022/08/24 07:31:27;;;;;;;9.87;1.83;;;14.80;55.40;;;;;;5047284;28;20515;-77
2022/08/24 07:33:55;;;;;;;6.40;1.90;;;14.80;55.40;;;;;;5024708;28;20191;-75
2022/08/24 07:36:22;;;;;;;9.33;2.00;;;14.80;56.10;;;;;;5045037;28;20176;-75
2022/08/24 07:38:51;;;;;;;6.67;1.83;;;14.70;56.10;;;;;;5042506;28;20183;-76
2022/08/24 07:41:20;;;;;;;9.07;1.93;;;14.60;56.50;;;;;;5050000;28;20226;-75
2022/08/24 07:43:48;;;;;;;4.53;1.73;;;14.50;56.30;;;;;;5053921;28;20243;-76
2022/08/24 07:46:15;;;;;;;9.00;1.90;;;14.40;56.70;;;;;;5030834;28;20173;-74
2022/08/24 07:48:44;;;;;;;11.87;2.53;;;14.30;57.50;;;;;;5053667;28;20172;-76
2022/08/24 07:51:16;;;;;;;7.27;2.37;;;14.20;57.90;;;;;;5047774;28;20172;-76
2022/08/24 07:53:44;;;;;;;6.00;2.30;;;14.20;58.60;;;;;;5054491;28;20180;-78
2022/08/24 07:56:12;;;;;;;10.27;2.67;;;14.20;59.20;;;;;;5033518;28;20563;-77
2022/08/24 07:58:40;;;;;;;9.17;2.77;;;14.10;59.00;;;;;;5016523;28;20186;-76
2022/08/24 08:01:08;;;;;;;12.37;3.20;;;14.00;59.80;;;;;;5043647;28;20227;-77
2022/08/24 08:03:36;;;;;;;5.37;2.60;;;14.00;59.80;;;;;;5037477;28;20758;-77
2022/08/24 08:06:07;;;;;;;7.30;2.73;;;14.00;60.20;;;;;;5049845;28;20225;-79
2022/08/24 08:08:40;;;;;;;8.97;2.97;;;13.90;60.70;;;;;;5032967;28;20185;-77
2022/08/24 08:11:08;;;;;;;5.67;2.83;;;13.80;61.00;;;;;;5052299;28;20191;-77
2022/08/24 08:13:37;;;;;;;13.03;2.43;;;13.70;60.70;;;;;;5044611;28;20200;-77
2022/08/24 08:16:06;;;;;;;12.97;2.97;;;13.60;61.00;;;;;;5025047;28;20546;-78
2022/08/24 08:18:34;;;;;;;10.87;2.80;;;13.60;61.70;;;;;;5022791;28;20177;-77
2022/08/24 08:24:13;;;;;;;9.27;2.90;;;13.50;61.20;;;;;;5045086;28;20183;-77
2022/08/24 08:26:38;;;;;;;9.07;3.17;;;13.40;62.10;;;;;;5038764;28;20241;-77
2022/08/24 08:29:06;;;;;;;14.67;6.40;;;13.30;62.90;;;;;;5046606;28;20184;-76
2022/08/24 08:31:34;;;;;;;13.27;7.20;;;13.30;63.40;;;;;;5039670;28;20183;-77
2022/08/24 08:34:01;;;;;;;12.57;6.90;;;13.30;63.50;;;;;;5022322;28;20231;-77
2022/08/24 08:36:29;;;;;;;33.27;17.93;;;13.30;63.60;;;;;;5040082;28;20546;-76
2022/08/24 08:38:56;;;;;;;22.17;14.63;;;13.20;63.10;;;;;;5044222;28;20183;-76
2022/08/24 08:41:42;;;;;;;12.40;6.33;;;13.20;63.10;;;;;;5039734;28;20180;-76
2022/08/24 08:44:51;;;;;;;9.40;4.60;;;13.30;63.40;;;;;;5043468;28;20600;-77
2022/08/24 08:47:44;;;;;;;11.43;4.00;;;13.20;64.10;;;;;;5010719;28;20185;-77
2022/08/24 08:50:25;;;;;;;15.83;4.27;;;13.20;64.30;;;;;;5048955;28;20199;-77
2022/08/24 08:52:58;;;;;;;14.43;4.20;;;13.10;64.50;;;;;;5042220;28;20650;-76
2022/08/24 08:55:41;;;;;;;12.53;5.10;;;13.10;64.80;;;;;;5050312;28;20181;-77
2022/08/24 08:58:27;;;;;;;9.93;4.37;;;13.10;65.30;;;;;;5042011;28;20203;-77
2022/08/24 09:01:22;;;;;;;11.27;4.47;;;13.00;65.60;;;;;;5034764;28;20253;-77
2022/08/24 09:04:04;;;;;;;11.23;4.90;;;12.90;65.80;;;;;;5031412;28;20693;-77
2022/08/24 09:06:54;;;;;;;7.20;4.13;;;12.90;64.60;;;;;;5027069;28;20185;-78
2022/08/24 09:09:39;;;;;;;8.63;4.23;;;12.90;64.80;;;;;;5050137;28;20192;-78
2022/08/24 09:12:26;;;;;;;11.03;3.83;;;12.90;65.50;;;;;;5045259;28;20183;-78
2022/08/24 09:15:18;;;;;;;7.03;3.30;;;12.90;65.00;;;;;;5039782;28;20214;-77
2022/08/24 09:18:21;;;;;;;8.17;4.10;;;12.90;64.00;;;;;;5049994;28;20225;-77
2022/08/24 09:21:13;;;;;;;7.10;3.90;;;12.90;63.60;;;;;;5032920;28;20179;-78
2022/08/24 09:24:08;;;;;;;9.20;3.80;;;12.90;64.10;;;;;;5034785;28;20307;-78
2022/08/24 09:27:03;;;;;;;13.03;3.83;;;12.80;65.10;;;;;;5042895;28;20184;-77
2022/08/24 09:30:08;;;;;;;9.80;4.07;;;12.80;65.30;;;;;;5039104;28;20180;-79
2022/08/24 09:32:54;;;;;;;11.83;4.53;;;12.70;65.10;;;;;;5035482;28;20551;-77
2022/08/24 09:36:00;;;;;;;11.77;4.43;;;12.70;65.30;;;;;;5037640;28;20192;-77
2022/08/24 09:38:50;;;;;;;11.37;5.30;;;12.60;65.90;;;;;;5033576;28;20192;-77
2022/08/24 09:41:36;;;;;;;14.13;6.47;;;12.50;66.10;;;;;;5031475;28;20565;-77
2022/08/24 09:44:38;;;;;;;13.87;6.30;;;12.50;66.40;;;;;;5031563;28;20204;-77
2022/08/24 09:47:24;;;;;;;13.87;6.63;;;12.50;66.60;;;;;;5033558;28;20182;-76
2022/08/24 09:49:57;;;;;;;13.10;6.27;;;12.50;66.80;;;;;;5055353;28;20218;-75
2022/08/24 09:53:12;;;;;;;21.80;7.53;;;12.40;67.50;;;;;;5031127;28;20185;-74
2022/08/24 09:55:42;;;;;;;13.27;7.10;;;12.30;66.20;;;;;;5029471;28;20260;-77
2022/08/24 09:58:18;;;;;;;13.37;6.03;;;12.30;67.70;;;;;;5035550;28;20185;-79
2022/08/24 10:01:15;;;;;;;10.70;5.20;;;12.20;68.10;;;;;;5033628;28;20172;-75
2022/08/24 10:03:49;;;;;;;10.57;4.80;;;12.20;67.10;;;;;;5023003;28;20259;-75
2022/08/24 10:06:51;;;;;;;12.37;3.90;;;12.30;64.20;;;;;;5038770;28;20184;-76
2022/08/24 10:09:36;;;;;;;5.73;2.50;;;12.30;61.00;;;;;;5048253;28;20179;-73
2022/08/24 10:12:31;;;;;;;7.50;2.50;;;12.40;57.70;;;;;;5055753;28;20547;-75
2022/08/24 10:15:03;;;;;;;2.70;2.10;;;12.50;56.90;;;;;;5046988;28;20180;-74
2022/08/24 10:18:05;;;;;;;5.13;2.27;;;12.50;56.20;;;;;;5037231;28;20677;-77
2022/08/24 10:21:07;;;;;;;2.37;1.80;;;12.40;55.60;;;;;;5055280;28;20604;-73
2022/08/24 10:24:00;;;;;;;4.10;2.40;;;12.40;54.90;;;;;;5047336;28;20277;-75
2022/08/24 10:26:52;;;;;;;3.30;1.70;;;12.30;54.80;;;;;;5038280;28;20169;-74
2022/08/24 10:29:40;;;;;;;5.40;2.20;;;12.30;54.40;;;;;;5039440;28;20217;-79
2022/08/24 10:32:37;;;;;;;5.93;1.83;;;12.20;54.20;;;;;;5025785;28;21212;-79
2022/08/24 10:35:11;;;;;;;4.00;1.80;;;12.20;54.20;;;;;;5035611;28;20279;-76
2022/08/24 10:37:39;;;;;;;3.53;1.73;;;12.20;53.50;;;;;;5049275;28;20179;-78
2022/08/24 10:40:34;;;;;;;2.93;1.70;;;12.20;54.10;;;;;;5039442;28;20219;-80
2022/08/24 10:43:34;;;;;;;3.00;1.70;;;12.00;53.80;;;;;;5047529;28;20215;-77
2022/08/24 10:46:32;;;;;;;3.03;1.60;;;12.00;53.90;;;;;;5043891;28;20262;-76
2022/08/24 10:49:05;;;;;;;3.20;1.33;;;12.00;52.90;;;;;;5032153;28;20196;-76
2022/08/24 10:51:49;;;;;;;5.17;1.83;;;12.00;53.70;;;;;;5042279;28;20533;-78
2022/08/24 10:54:19;;;;;;;4.00;1.60;;;12.00;52.90;;;;;;5041115;28;20649;-74
2022/08/24 10:57:06;;;;;;;3.07;1.20;;;12.00;53.20;;;;;;5050546;28;20191;-75
2022/08/24 11:00:00;;;;;;;2.93;1.73;;;12.00;53.00;;;;;;5048387;28;20234;-76
2022/08/24 11:02:36;;;;;;;4.50;1.57;;;11.90;53.50;;;;;;5051629;28;20257;-74
2022/08/24 11:05:08;;;;;;;2.87;1.40;;;11.80;53.70;;;;;;5054454;28;20668;-75
2022/08/24 11:07:37;;;;;;;4.17;1.70;;;11.90;53.20;;;;;;5037024;28;20180;-78
2022/08/24 11:10:08;;;;;;;3.07;1.60;;;11.80;53.30;;;;;;5049042;28;20192;-78
2022/08/24 11:12:43;;;;;;;4.03;1.20;;;11.80;53.10;;;;;;5049463;28;20252;-76
2022/08/24 11:15:25;;;;;;;4.40;1.50;;;11.80;53.20;;;;;;5037781;28;20172;-76
2022/08/24 11:18:01;;;;;;;4.20;1.43;;;11.80;53.30;;;;;;5042487;28;20664;-77
2022/08/24 11:20:35;;;;;;;2.10;1.20;;;11.80;53.20;;;;;;5041961;28;20253;-75
2022/08/24 11:23:05;;;;;;;3.00;1.40;;;11.70;53.30;;;;;;5050545;28;20296;-73
2022/08/24 11:25:36;;;;;;;4.30;1.70;;;11.70;53.50;;;;;;5034617;28;20241;-76
2022/08/24 11:28:31;;;;;;;3.93;1.40;;;11.60;53.80;;;;;;5053142;28;20183;-75
2022/08/24 11:30:59;;;;;;;3.77;1.50;;;11.60;54.10;;;;;;5044272;28;20715;-78
2022/08/24 11:33:33;;;;;;;3.83;1.40;;;11.60;53.90;;;;;;5042911;28;20171;-75
2022/08/24 11:36:01;;;;;;;3.23;1.53;;;11.50;54.40;;;;;;5040950;28;20271;-75
2022/08/24 11:38:33;;;;;;;3.67;1.50;;;11.50;54.40;;;;;;5039839;28;20181;-76
2022/08/24 11:41:16;;;;;;;3.00;1.40;;;11.40;54.40;;;;;;5034552;28;20234;-75
2022/08/24 11:44:06;;;;;;;3.00;1.77;;;11.50;54.60;;;;;;5029240;28;20211;-75
2022/08/24 11:46:56;;;;;;;3.53;1.30;;;11.30;55.00;;;;;;5048381;28;20200;-76
2022/08/24 11:49:38;;;;;;;2.70;1.57;;;11.30;55.50;;;;;;5039408;28;20241;-76
2022/08/24 11:52:20;;;;;;;4.17;1.60;;;11.20;55.70;;;;;;5048626;28;20236;-75
2022/08/24 11:55:11;;;;;;;4.40;2.17;;;11.20;55.70;;;;;;5040404;28;20659;-75
2022/08/24 11:57:44;;;;;;;3.87;1.70;;;11.20;56.00;;;;;;5043501;28;20544;-75
2022/08/24 12:00:21;;;;;;;4.50;1.53;;;11.10;56.10;;;;;;5050611;28;20180;-75
2022/08/24 12:03:21;;;;;;;2.83;1.70;;;11.10;56.30;;;;;;5053389;28;20202;-76
2022/08/24 12:06:10;;;;;;;3.10;1.70;;;11.00;56.40;;;;;;5051682;28;20603;-76
2022/08/24 12:08:59;;;;;;;2.20;1.57;;;11.10;56.60;;;;;;5051362;28;20180;-75
2022/08/24 12:11:34;;;;;;;4.27;2.00;;;11.00;56.90;;;;;;5038102;28;20176;-76
2022/08/24 12:14:20;;;;;;;4.87;2.40;;;10.90;56.50;;;;;;5026234;28;20548;-77
2022/08/24 12:17:26;;;;;;;7.23;1.80;;;10.90;56.40;;;;;;5033078;28;20187;-75
2022/08/24 12:20:02;;;;;;;2.77;1.60;;;10.90;56.90;;;;;;5045065;28;20202;-75
2022/08/24 12:22:31;;;;;;;5.60;1.73;;;10.90;57.00;;;;;;5048622;28;20216;-76
2022/08/24 12:26:00;;;;;;;4.23;1.53;;;10.90;57.30;;;;;;5046549;28;20176;-76
2022/08/24 12:27:53;;;;;;;3.43;1.40;;;10.80;56.90;;;;;;5038264;28;20301;-76
2022/08/24 12:30:21;;;;;;;2.93;1.60;;;10.80;57.10;;;;;;5040407;28;20205;-79
2022/08/24 12:33:00;;;;;;;3.90;1.97;;;10.80;57.10;;;;;;5046421;28;20177;-76
2022/08/24 12:35:30;;;;;;;3.60;1.40;;;10.80;56.70;;;;;;5042586;28;20231;-76
2022/08/24 12:38:20;;;;;;;1.30;1.13;;;10.80;57.00;;;;;;5034582;28;20662;-79
2022/08/24 12:41:05;;;;;;;1.87;1.20;;;10.80;56.80;;;;;;5022966;28;20228;-76
2022/08/24 12:43:35;;;;;;;2.63;1.27;;;10.80;56.40;;;;;;5037291;28;20222;-79
2022/08/24 12:46:06;;;;;;;2.93;1.20;;;10.80;56.20;;;;;;5047864;28;20226;-76
2022/08/24 12:48:39;;;;;;;2.60;1.30;;;10.80;56.70;;;;;;5051115;28;20191;-79
2022/08/24 12:51:24;;;;;;;2.83;1.30;;;10.80;56.50;;;;;;5043670;28;20271;-80
2022/08/24 12:54:06;;;;;;;2.47;1.33;;;10.80;56.30;;;;;;5050294;28;20660;-76
2022/08/24 12:56:55;;;;;;;2.47;1.30;;;10.80;56.40;;;;;;5052754;28;20217;-78
2022/08/24 12:59:30;;;;;;;1.83;1.33;;;10.80;56.30;;;;;;5047329;28;20195;-76
2022/08/24 13:02:05;;;;;;;2.03;1.07;;;10.70;56.40;;;;;;5047690;28;20691;-76
2022/08/24 13:04:51;;;;;;;4.33;1.47;;;10.70;56.20;;;;;;5040244;28;20210;-74
2022/08/24 13:07:21;;;;;;;4.10;1.50;;;10.70;56.40;;;;;;5040208;28;20183;-77
2022/08/24 13:10:10;;;;;;;5.33;1.70;;;10.70;56.50;;;;;;5034591;28;20179;-76
2022/08/24 13:12:42;;;;;;;1.77;1.47;;;10.70;56.60;;;;;;5052138;28;20175;-76
2022/08/24 13:15:27;;;;;;;2.10;1.40;;;10.60;57.20;;;;;;5045555;28;20187;-76
2022/08/24 13:18:08;;;;;;;3.13;1.60;;;10.60;57.00;;;;;;5026234;28;20178;-76
2022/08/24 13:20:35;;;;;;;3.27;1.57;;;10.50;57.80;;;;;;5051880;28;20540;-77
2022/08/24 13:23:12;;;;;;;3.00;1.40;;;10.50;57.70;;;;;;5046623;28;20217;-82
2022/08/24 13:25:51;;;;;;;2.83;1.53;;;10.50;57.90;;;;;;5039744;28;20211;-77
2022/08/24 13:28:21;;;;;;;1.70;1.30;;;10.40;58.50;;;;;;5047363;28;20179;-76
2022/08/24 13:31:22;;;;;;;1.97;1.40;;;10.30;58.70;;;;;;5049051;28;20194;-76
2022/08/24 13:34:20;;;;;;;4.03;1.60;;;10.30;58.90;;;;;;5050983;28;20235;-77